Time;durP1;ratioP1;P1;durP2;ratioP2;P2;SDS_P1;SDS_P2;PMS_P1;PMS_P2;Temp;Humidity;BMP_temperature;BMP_pressure;BME280_temperature;BME280_humidity;BME280_pressure;Samples;Min_cycle;Max_cycle;Signal;HPM_P1;HPM_P2
2022/11/04 00:02:13;;;;;;;15.63;12.53;;;;;;;10.67;90.62;96831.56;6245056;28;20322;-63
2022/11/04 00:05:15;;;;;;;18.97;13.13;;;;;;;10.66;90.75;96837.00;6237279;28;20238;-63
2022/11/04 00:08:23;;;;;;;20.93;15.87;;;;;;;10.62;91.17;96843.53;6243027;28;20642;-63
2022/11/04 00:14:47;;;;;;;19.57;13.80;;;;;;;10.60;91.33;96829.63;6240207;28;20243;-65
2022/11/04 00:17:49;;;;;;;17.30;13.23;;;;;;;10.58;91.29;96831.59;6241417;28;20262;-63
2022/11/04 00:30:56;;;;;;;16.90;13.47;;;;;;;10.47;91.85;96816.78;6229029;28;20278;-63
2022/11/04 00:33:58;;;;;;;21.03;14.73;;;;;;;10.42;92.37;96819.00;6239809;28;20691;-63
2022/11/04 00:37:01;;;;;;;18.37;13.67;;;;;;;10.40;92.74;96814.84;6239422;28;20320;-64
2022/11/04 00:40:05;;;;;;;18.03;13.67;;;;;;;10.32;92.23;96824.31;6238630;28;20230;-63
2022/11/04 00:43:07;;;;;;;18.13;12.73;;;;;;;10.25;92.60;96815.31;6226261;28;20710;-63
2022/11/04 00:46:09;;;;;;;18.20;13.17;;;;;;;10.17;92.88;96804.63;6227095;28;20235;-63
2022/11/04 00:49:11;;;;;;;20.83;16.83;;;;;;;10.14;94.01;96791.72;6237035;28;20240;-64
2022/11/04 00:52:13;;;;;;;16.10;12.47;;;;;;;10.10;93.38;96792.13;6240451;28;20389;-64
2022/11/04 00:55:15;;;;;;;21.20;15.40;;;;;;;10.07;93.98;96789.78;6210901;28;20755;-64
2022/11/04 00:58:17;;;;;;;17.73;13.70;;;;;;;10.03;93.75;96777.84;6241065;28;20404;-64
2022/11/04 01:01:19;;;;;;;16.53;13.57;;;;;;;9.97;94.10;96774.00;6240416;28;20243;-64
2022/11/04 01:04:22;;;;;;;19.77;17.03;;;;;;;10.06;95.86;96767.03;6241166;28;20238;-64
2022/11/04 01:07:24;;;;;;;22.03;15.90;;;;;;;10.12;95.13;96764.66;6242945;28;20230;-63
2022/11/04 01:10:26;;;;;;;17.87;15.27;;;;;;;10.11;95.09;96770.06;6243047;28;20239;-63
2022/11/04 01:13:29;;;;;;;19.50;14.63;;;;;;;10.07;94.95;96763.44;6244697;28;20233;-63
2022/11/04 01:16:31;;;;;;;18.77;15.37;;;;;;;10.09;95.35;96770.19;6243282;28;20777;-63
2022/11/04 01:19:33;;;;;;;18.57;14.47;;;;;;;10.05;94.46;96768.84;6245293;28;20241;-64
2022/11/04 01:22:35;;;;;;;20.17;14.57;;;;;;;9.98;94.63;96763.28;6226330;28;20265;-63
2022/11/04 01:25:40;;;;;;;20.30;14.53;;;;;;;9.88;94.69;96761.66;6228062;28;20242;-63
2022/11/04 01:28:43;;;;;;;20.27;15.30;;;;;;;9.72;95.40;96754.31;6247824;28;20666;-63
2022/11/04 01:31:45;;;;;;;18.57;13.80;;;;;;;9.65;95.40;96750.59;6242049;28;20231;-63
2022/11/04 01:34:47;;;;;;;15.77;13.27;;;;;;;9.58;95.78;96747.66;6246459;28;20227;-66
2022/11/04 01:37:49;;;;;;;19.83;14.43;;;;;;;9.46;95.50;96750.59;6241183;28;20230;-63
2022/11/04 01:40:51;;;;;;;20.13;14.43;;;;;;;9.36;95.72;96747.13;6238355;28;20230;-64
2022/11/04 01:43:59;;;;;;;17.77;14.33;;;;;;;9.30;95.47;96737.97;6245347;28;20233;-63
2022/11/04 01:47:03;;;;;;;14.63;12.30;;;;;;;9.24;95.89;96733.28;6242008;28;20237;-63
2022/11/04 01:50:16;;;;;;;15.67;12.87;;;;;;;9.20;96.36;96745.88;6245006;28;20704;-63
2022/11/04 01:53:26;;;;;;;15.80;12.90;;;;;;;9.14;96.65;96738.53;6242856;28;20713;-63
2022/11/04 01:56:28;;;;;;;18.57;14.50;;;;;;;9.08;96.35;96738.25;6245608;28;20809;-63
2022/11/04 01:59:35;;;;;;;14.27;12.40;;;;;;;9.10;96.86;96725.78;6246219;28;20249;-65
2022/11/04 02:02:57;;;;;;;16.70;13.43;;;;;;;9.13;96.18;96728.13;6245725;28;20459;-63
2022/11/04 02:06:00;;;;;;;13.27;11.80;;;;;;;9.15;96.92;96724.41;6245460;28;20718;-63
2022/11/04 02:09:02;;;;;;;14.70;12.37;;;;;;;9.14;96.74;96712.22;6240622;28;20234;-63
2022/11/04 02:15:54;;;;;;;16.50;12.10;;;;;;;9.18;96.43;96702.25;6242320;28;20302;-63
2022/11/04 02:19:23;;;;;;;15.50;12.27;;;;;;;9.18;96.90;96703.06;6243848;28;20250;-63
2022/11/04 02:23:10;;;;;;;16.90;13.17;;;;;;;9.21;96.57;96715.13;6242336;28;20230;-63
2022/11/04 02:27:06;;;;;;;16.53;13.57;;;;;;;9.20;96.90;96700.28;6131119;28;20225;-63
2022/11/04 02:30:15;;;;;;;15.20;11.70;;;;;;;9.22;97.39;96690.44;6096423;28;20232;-63
2022/11/04 02:33:19;;;;;;;20.63;13.53;;;;;;;9.25;97.08;96688.38;6223812;28;20299;-63
2022/11/04 02:36:27;;;;;;;18.23;12.57;;;;;;;9.28;97.90;96689.09;6240292;28;20714;-63
2022/11/04 02:39:48;;;;;;;14.17;12.27;;;;;;;9.30;98.33;96682.69;6244087;28;20750;-63
2022/11/04 02:43:29;;;;;;;13.93;11.17;;;;;;;9.34;97.76;96672.72;6241966;28;20229;-63
2022/11/04 02:46:35;;;;;;;17.83;11.53;;;;;;;9.34;98.07;96670.91;6243441;28;20431;-63
2022/11/04 02:49:45;;;;;;;17.17;11.90;;;;;;;9.38;98.38;96671.47;6237655;28;20466;-63
2022/11/04 02:53:00;;;;;;;14.73;12.13;;;;;;;9.40;98.28;96664.25;6240454;28;20235;-63
2022/11/04 02:56:04;;;;;;;14.83;12.13;;;;;;;9.38;97.63;96674.09;6242711;28;20239;-64
2022/11/04 02:59:13;;;;;;;14.43;12.23;;;;;;;9.36;98.59;96665.50;6225150;28;20226;-66
2022/11/04 03:02:20;;;;;;;16.07;11.80;;;;;;;9.37;98.53;96668.00;6241179;28;20240;-63
2022/11/04 03:05:29;;;;;;;14.40;11.90;;;;;;;9.40;98.22;96664.25;6224685;28;20226;-63
2022/11/04 03:08:35;;;;;;;16.33;12.43;;;;;;;9.38;98.13;96667.03;6240922;28;20377;-63
2022/11/04 03:11:43;;;;;;;15.47;11.60;;;;;;;9.39;98.02;96666.03;6242628;28;20818;-63
2022/11/04 03:14:51;;;;;;;12.30;11.07;;;;;;;9.43;98.40;96677.13;6240065;28;20248;-64
2022/11/04 03:18:35;;;;;;;15.03;11.07;;;;;;;9.45;98.35;96668.13;6240198;28;20239;-63
2022/11/04 03:21:44;;;;;;;12.17;10.77;;;;;;;9.43;98.67;96672.69;6166358;28;20294;-63
2022/11/04 03:24:48;;;;;;;15.53;12.13;;;;;;;9.44;98.82;96661.19;6154458;28;20283;-63
2022/11/04 03:28:01;;;;;;;16.23;12.40;;;;;;;9.46;98.62;96668.97;6165172;28;20736;-63
2022/11/04 03:31:05;;;;;;;12.60;11.17;;;;;;;9.44;98.58;96660.38;6168425;28;20697;-63
2022/11/04 03:34:07;;;;;;;14.07;12.23;;;;;;;9.45;98.73;96662.88;6167623;28;20292;-63
2022/11/04 03:37:10;;;;;;;15.17;11.60;;;;;;;9.47;99.00;96655.66;6151079;28;20747;-64
2022/11/04 03:40:13;;;;;;;13.83;11.80;;;;;;;9.49;99.16;96656.31;6165685;28;20236;-64
2022/11/04 03:43:22;;;;;;;11.97;10.40;;;;;;;9.50;98.85;96668.53;6165379;28;20395;-63
2022/11/04 03:46:25;;;;;;;13.07;10.93;;;;;;;9.50;98.75;96657.16;6165232;28;20237;-63
2022/11/04 03:49:27;;;;;;;14.27;10.77;;;;;;;9.51;99.24;96669.34;6163010;28;20231;-63
2022/11/04 03:52:29;;;;;;;13.93;11.83;;;;;;;9.51;99.00;96667.56;6164930;28;20515;-63
2022/11/04 03:56:19;;;;;;;12.80;11.43;;;;;;;9.50;99.31;96663.25;6172037;28;20238;-64
2022/11/04 03:59:34;;;;;;;15.03;12.37;;;;;;;9.48;99.28;96665.19;6199111;28;20230;-63
2022/11/04 04:02:56;;;;;;;14.07;11.70;;;;;;;9.49;99.14;96671.28;6230458;28;20609;-63
2022/11/04 04:06:12;;;;;;;14.53;11.70;;;;;;;9.49;99.28;96666.03;6241390;28;20729;-63
2022/11/04 04:09:23;;;;;;;12.27;10.30;;;;;;;9.50;98.90;96663.25;6241571;28;20233;-64
2022/11/04 04:12:34;;;;;;;12.00;10.17;;;;;;;9.49;99.25;96661.59;6239380;28;20238;-63
2022/11/04 04:15:45;;;;;;;11.30;10.07;;;;;;;9.49;99.58;96673.94;6239509;28;20230;-63
2022/11/04 04:18:58;;;;;;;12.33;10.10;;;;;;;9.48;99.63;96670.47;6241119;28;20799;-63
2022/11/04 04:22:16;;;;;;;11.50;9.40;;;;;;;9.47;99.57;96681.16;6238385;28;20320;-62
2022/11/04 04:28:45;;;;;;;14.47;11.43;;;;;;;9.46;99.08;96684.75;6232752;28;20717;-63
2022/11/04 04:31:48;;;;;;;14.30;10.97;;;;;;;9.46;98.93;96696.13;6239743;28;20277;-63
2022/11/04 04:35:40;;;;;;;11.43;9.93;;;;;;;9.44;99.31;96699.88;6238875;28;20706;-63
2022/11/04 04:45:06;;;;;;;13.60;11.30;;;;;;;9.37;98.96;96765.44;6244249;28;20245;-63
2022/11/04 04:48:10;;;;;;;14.20;11.37;;;;;;;9.36;98.85;96779.56;6245888;28;20228;-64
2022/11/04 04:51:13;;;;;;;14.80;12.10;;;;;;;9.36;99.33;96779.56;6242831;28;20383;-63
2022/11/04 04:54:15;;;;;;;20.50;15.13;;;;;;;9.39;98.91;96779.28;6248526;28;20355;-63
2022/11/04 04:57:17;;;;;;;18.37;13.97;;;;;;;9.41;99.19;96774.72;6244171;28;20313;-63
2022/11/04 05:00:20;;;;;;;19.30;14.60;;;;;;;9.44;99.40;96770.97;6245515;28;20237;-63
2022/11/04 05:03:23;;;;;;;17.57;14.23;;;;;;;9.45;99.36;96765.56;6247565;28;20238;-63
2022/11/04 05:06:26;;;;;;;26.10;18.63;;;;;;;9.49;99.62;96771.38;6241759;28;20325;-63
2022/11/04 05:09:28;;;;;;;20.17;16.30;;;;;;;9.44;99.25;96763.91;6245386;28;20277;-64
2022/11/04 05:13:24;;;;;;;20.83;16.97;;;;;;;9.46;99.80;96763.78;6243668;28;20321;-63
2022/11/04 05:15:52;;;;;;;21.07;15.73;;;;;;;9.47;99.35;96765.44;6227696;28;20232;-63
2022/11/04 05:18:54;;;;;;;19.83;15.37;;;;;;;9.49;99.57;96759.03;6243098;28;20233;-63
2022/11/04 05:21:57;;;;;;;18.20;15.00;;;;;;;9.54;99.28;96756.84;6241433;28;20230;-64
2022/11/04 05:24:59;;;;;;;23.37;16.33;;;;;;;9.54;99.28;96746.28;6239184;28;20253;-63
2022/11/04 05:28:01;;;;;;;21.47;16.73;;;;;;;9.56;99.39;96748.78;6244456;28;20610;-63
2022/11/04 05:31:06;;;;;;;20.83;15.63;;;;;;;9.59;99.69;96749.31;6244531;28;20349;-63
2022/11/04 05:34:12;;;;;;;20.67;15.13;;;;;;;9.65;99.27;96745.31;6224758;28;20694;-64
2022/11/04 05:37:14;;;;;;;20.90;15.60;;;;;;;9.64;99.58;96751.56;6244313;28;20227;-64
2022/11/04 05:40:17;;;;;;;17.40;14.63;;;;;;;9.65;99.57;96747.13;6242799;28;20240;-64
2022/11/04 05:43:19;;;;;;;18.00;13.43;;;;;;;9.67;99.30;96753.09;6241744;28;20709;-64
2022/11/04 05:46:22;;;;;;;17.23;13.53;;;;;;;9.69;100.00;96759.03;6243382;28;20396;-64
2022/11/04 05:49:24;;;;;;;23.47;15.20;;;;;;;9.67;99.90;96759.19;6212611;28;20753;-63
2022/11/04 05:52:26;;;;;;;14.53;12.40;;;;;;;9.69;100.00;96764.28;6246233;28;20836;-64
2022/11/04 05:55:28;;;;;;;22.77;14.37;;;;;;;9.72;100.00;96774.56;6253951;28;20234;-64
2022/11/04 05:58:30;;;;;;;17.23;14.07;;;;;;;9.71;100.00;96768.47;6226118;28;20317;-64
2022/11/04 06:01:35;;;;;;;22.77;16.53;;;;;;;9.74;100.00;96777.91;6244675;28;20304;-64
2022/11/04 06:04:37;;;;;;;27.10;18.73;;;;;;;9.71;100.00;96781.63;6241696;28;20230;-64
2022/11/04 06:07:39;;;;;;;29.27;21.07;;;;;;;9.71;100.00;96791.34;6227382;28;20630;-65
2022/11/04 06:10:42;;;;;;;25.40;18.57;;;;;;;9.71;100.00;96800.06;6243259;28;20320;-65
2022/11/04 06:13:44;;;;;;;21.40;18.00;;;;;;;9.71;100.00;96809.78;6227304;28;20322;-64
2022/11/04 06:16:46;;;;;;;22.27;17.27;;;;;;;9.71;100.00;96809.78;6241345;28;20253;-64
2022/11/04 06:19:49;;;;;;;24.27;17.57;;;;;;;9.71;100.00;96813.25;6247249;28;20229;-65
2022/11/04 06:22:51;;;;;;;23.53;18.90;;;;;;;9.71;100.00;96801.88;6228088;28;20643;-65
2022/11/04 06:25:53;;;;;;;26.60;20.57;;;;;;;9.70;100.00;96801.03;6245533;28;20728;-64
2022/11/04 06:28:55;;;;;;;22.53;18.60;;;;;;;9.72;100.00;96816.72;6231408;28;20592;-64
2022/11/04 06:31:58;;;;;;;23.80;18.87;;;;;;;9.72;100.00;96828.09;6244803;28;20329;-65
2022/11/04 06:35:00;;;;;;;31.97;21.40;;;;;;;9.71;100.00;96823.78;6238879;28;20245;-65
2022/11/04 06:38:02;;;;;;;29.70;22.50;;;;;;;9.71;100.00;96836.13;6234112;28;20255;-65
2022/11/04 06:41:06;;;;;;;34.40;24.07;;;;;;;9.71;100.00;96829.06;6225177;28;20321;-65
2022/11/04 06:44:09;;;;;;;33.37;26.47;;;;;;;9.70;100.00;96840.56;6245125;28;20316;-66
2022/11/04 06:47:11;;;;;;;35.50;24.10;;;;;;;9.70;100.00;96837.94;6250575;28;20238;-65
2022/11/04 06:50:13;;;;;;;33.67;23.97;;;;;;;9.70;100.00;96837.09;6216367;28;20226;-65
2022/11/04 06:53:15;;;;;;;30.50;22.33;;;;;;;9.71;100.00;96831.69;6234942;28;20697;-65
2022/11/04 06:56:17;;;;;;;28.80;22.13;;;;;;;9.71;100.00;96831.69;6245857;28;20323;-65
2022/11/04 06:59:19;;;;;;;35.87;25.07;;;;;;;9.72;100.00;96822.81;6234249;28;20405;-65
2022/11/04 07:02:21;;;;;;;35.37;24.73;;;;;;;9.73;100.00;96834.19;6243917;28;20255;-65
2022/11/04 07:05:24;;;;;;;40.30;27.33;;;;;;;9.71;100.00;96841.41;6230183;28;20235;-65
2022/11/04 07:08:26;;;;;;;43.93;29.40;;;;;;;9.69;100.00;96838.91;6244146;28;20339;-65
2022/11/04 07:11:30;;;;;;;42.27;28.83;;;;;;;9.69;100.00;96849.44;6247364;28;20325;-65
2022/11/04 07:14:32;;;;;;;41.80;30.07;;;;;;;9.68;100.00;96853.06;6242743;28;20226;-65
2022/11/04 07:17:34;;;;;;;44.90;31.40;;;;;;;9.68;100.00;96854.88;6221897;28;20331;-66
2022/11/04 07:20:36;;;;;;;40.47;29.37;;;;;;;9.70;100.00;96852.91;6241936;28;20229;-66
2022/11/04 07:23:39;;;;;;;45.93;31.00;;;;;;;9.72;100.00;96845.69;6222873;28;20238;-66
2022/11/04 07:26:41;;;;;;;45.57;29.70;;;;;;;9.75;100.00;96846.25;6231311;28;20227;-66
2022/11/04 07:29:43;;;;;;;43.80;29.70;;;;;;;9.78;100.00;96848.59;6240813;28;20226;-66
2022/11/04 07:32:46;;;;;;;43.83;29.67;;;;;;;9.80;100.00;96854.56;6247736;28;20669;-65
2022/11/04 07:35:48;;;;;;;41.17;27.57;;;;;;;9.83;100.00;96859.56;6211674;28;20624;-65
2022/11/04 07:38:54;;;;;;;41.23;30.07;;;;;;;9.83;100.00;96851.66;6227339;28;20715;-66
2022/11/04 07:41:56;;;;;;;39.27;28.77;;;;;;;9.84;100.00;96863.03;6246491;28;20230;-65
2022/11/04 07:45:00;;;;;;;35.27;25.87;;;;;;;9.84;100.00;96852.50;6227275;28;20239;-65
2022/11/04 07:48:03;;;;;;;43.37;30.53;;;;;;;9.86;100.00;96858.47;6226639;28;20594;-65
2022/11/04 07:51:07;;;;;;;46.03;31.57;;;;;;;9.85;100.00;96841.00;6241205;28;20433;-65
2022/11/04 07:54:09;;;;;;;38.80;28.87;;;;;;;9.84;100.00;96847.22;6230615;28;20361;-65
2022/11/04 07:57:11;;;;;;;34.73;25.90;;;;;;;9.87;100.00;96844.31;6204226;28;20578;-65
2022/11/04 08:00:15;;;;;;;37.27;27.07;;;;;;;9.95;100.00;96831.28;6215861;28;20218;-66
2022/11/04 08:03:17;;;;;;;43.07;30.43;;;;;;;9.95;100.00;96815.47;6241558;28;20581;-65
2022/11/04 08:06:20;;;;;;;44.47;32.00;;;;;;;9.97;100.00;96802.97;6239074;28;20795;-65
2022/11/04 08:09:22;;;;;;;35.80;26.67;;;;;;;10.01;100.00;96799.06;6221306;28;20792;-65
2022/11/04 08:12:26;;;;;;;37.60;28.23;;;;;;;10.09;100.00;96796.56;6238669;28;20296;-64
2022/11/04 08:15:28;;;;;;;33.10;25.73;;;;;;;10.15;100.00;96796.00;6245265;28;20612;-65
2022/11/04 08:18:32;;;;;;;28.87;23.07;;;;;;;10.22;100.00;96793.66;6229032;28;20706;-65
2022/11/04 08:21:34;;;;;;;28.83;23.13;;;;;;;10.27;100.00;96794.91;6230938;28;20729;-66
2022/11/04 08:24:37;;;;;;;37.10;26.60;;;;;;;10.28;100.00;96814.19;6245821;28;20718;-66
2022/11/04 08:27:39;;;;;;;45.77;31.40;;;;;;;10.21;100.00;96832.38;6246194;28;20598;-65
2022/11/04 08:30:50;;;;;;;39.50;28.57;;;;;;;10.17;100.00;96828.34;6234162;28;20236;-65
2022/11/04 08:33:53;;;;;;;40.67;27.93;;;;;;;10.14;100.00;96820.72;6223767;28;20234;-65
2022/11/04 08:36:56;;;;;;;33.37;24.97;;;;;;;10.13;100.00;96799.75;6236953;28;20228;-64
2022/11/04 08:39:58;;;;;;;32.80;25.37;;;;;;;10.11;100.00;96777.97;6245839;28;20310;-65
2022/11/04 08:43:00;;;;;;;31.80;23.63;;;;;;;10.20;100.00;96791.16;6231390;28;20721;-66
2022/11/04 08:46:04;;;;;;;34.00;24.73;;;;;;;10.26;100.00;96808.22;6223945;28;20297;-67
2022/11/04 08:49:07;;;;;;;27.63;21.97;;;;;;;10.22;100.00;96810.31;6212409;28;20271;-66
2022/11/04 08:52:13;;;;;;;25.27;20.13;;;;;;;10.24;100.00;96812.81;6250729;28;20322;-67
2022/11/04 08:55:15;;;;;;;24.87;19.17;;;;;;;10.25;100.00;96794.22;6255694;28;20223;-65
2022/11/04 08:58:18;;;;;;;25.20;20.00;;;;;;;10.28;100.00;96782.56;6221619;28;20323;-66
2022/11/04 09:01:22;;;;;;;30.03;22.50;;;;;;;10.27;100.00;96752.72;6245478;28;20234;-64
2022/11/04 09:04:24;;;;;;;32.00;24.23;;;;;;;10.24;100.00;96738.97;6242767;28;20230;-65
2022/11/04 09:07:26;;;;;;;24.23;18.97;;;;;;;10.26;100.00;96748.41;6253460;28;20598;-66
2022/11/04 09:10:28;;;;;;;24.10;18.97;;;;;;;10.30;100.00;96744.50;6228664;28;20776;-66
2022/11/04 09:13:30;;;;;;;22.93;17.67;;;;;;;10.38;100.00;96750.88;6230733;28;20689;-65
2022/11/04 09:16:41;;;;;;;23.00;18.20;;;;;;;10.45;100.00;96751.94;6238150;28;20239;-65
2022/11/04 09:19:43;;;;;;;21.47;17.63;;;;;;;10.48;100.00;96726.09;6242871;28;20239;-65
2022/11/04 09:22:49;;;;;;;19.63;16.67;;;;;;;10.56;100.00;96728.03;6229786;28;20322;-66
2022/11/04 09:25:52;;;;;;;21.33;16.87;;;;;;;10.54;100.00;96722.06;6242344;28;20333;-65
2022/11/04 09:28:56;;;;;;;18.27;14.87;;;;;;;10.47;100.00;96715.72;6249190;28;20808;-65
2022/11/04 09:32:00;;;;;;;15.77;13.87;;;;;;;10.41;100.00;96732.09;6246020;28;20630;-66
2022/11/04 09:35:02;;;;;;;23.77;18.67;;;;;;;10.40;100.00;96727.81;6244715;28;20650;-66
2022/11/04 09:38:04;;;;;;;21.20;16.97;;;;;;;10.31;100.00;96761.97;6241962;28;20333;-66
2022/11/04 09:41:32;;;;;;;20.57;16.77;;;;;;;10.28;100.00;96729.81;6232196;28;20235;-65
2022/11/04 09:45:00;;;;;;;18.63;15.17;;;;;;;10.28;100.00;96725.34;6222753;28;20321;-66
2022/11/04 09:48:40;;;;;;;20.33;14.40;;;;;;;10.27;100.00;96730.78;6230594;28;20223;-66
2022/11/04 09:51:46;;;;;;;17.60;14.07;;;;;;;10.21;100.00;96728.72;6242159;28;20869;-66
2022/11/04 09:55:29;;;;;;;22.40;15.33;;;;;;;10.15;100.00;96713.44;6235170;28;20234;-66
2022/11/04 09:58:36;;;;;;;19.33;15.30;;;;;;;10.09;100.00;96712.19;6230830;28;20243;-65
2022/11/04 10:01:42;;;;;;;19.40;13.87;;;;;;;10.00;100.00;96713.91;6245855;28;20372;-65
2022/11/04 10:04:55;;;;;;;19.97;14.17;;;;;;;9.93;100.00;96707.53;6231166;28;20264;-65
2022/11/04 10:08:31;;;;;;;15.70;11.97;;;;;;;9.90;100.00;96706.97;6243038;28;20273;-67
2022/11/04 10:12:10;;;;;;;16.40;12.23;;;;;;;9.90;100.00;96699.91;6245853;28;20227;-66
2022/11/04 10:15:44;;;;;;;12.90;10.27;;;;;;;9.94;100.00;96695.19;6225610;28;20246;-66
2022/11/04 10:19:07;;;;;;;15.50;11.17;;;;;;;9.96;100.00;96704.63;6248305;28;20318;-66
2022/11/04 10:22:19;;;;;;;11.23;10.03;;;;;;;10.05;100.00;96696.81;6242341;28;20263;-66
2022/11/04 10:25:26;;;;;;;16.03;11.73;;;;;;;10.09;100.00;96692.91;6242397;28;20243;-65
2022/11/04 10:29:01;;;;;;;14.63;11.40;;;;;;;10.14;100.00;96688.88;6251466;28;20717;-66
2022/11/04 10:32:20;;;;;;;13.20;10.50;;;;;;;10.12;100.00;96680.28;6241565;28;20227;-66
2022/11/04 10:35:48;;;;;;;12.57;9.87;;;;;;;10.10;100.00;96671.69;6244959;28;20604;-65
2022/11/04 10:38:54;;;;;;;12.63;9.33;;;;;;;10.05;100.00;96658.13;6231811;28;20246;-66
2022/11/04 10:41:57;;;;;;;6.87;5.13;;;;;;;9.94;100.00;96669.66;6230212;28;20230;-65
2022/11/04 10:44:59;;;;;;;3.80;3.40;;;;;;;9.94;100.00;96668.84;6235711;28;20698;-65
2022/11/04 10:48:18;;;;;;;3.70;3.27;;;;;;;9.98;100.00;96655.22;6236568;28;20230;-68
2022/11/04 10:51:22;;;;;;;3.80;2.43;;;;;;;10.00;100.00;96669.09;6241151;28;20762;-66
2022/11/04 10:54:25;;;;;;;1.60;1.50;;;;;;;10.06;100.00;96651.03;6230910;28;20621;-66
2022/11/04 10:57:28;;;;;;;2.40;1.37;;;;;;;10.09;100.00;96632.28;6218341;28;20549;-66
2022/11/04 11:00:37;;;;;;;3.40;1.10;;;;;;;10.02;100.00;96639.94;6241448;28;20290;-67
2022/11/04 11:03:39;;;;;;;2.37;0.77;;;;;;;9.92;99.88;96636.53;6220466;28;20280;-66
2022/11/04 11:06:41;;;;;;;1.20;0.60;;;;;;;9.86;100.00;96645.84;6244384;28;20234;-65
2022/11/04 11:09:55;;;;;;;0.83;0.50;;;;;;;9.79;98.84;96650.00;6240583;28;20712;-65
2022/11/04 11:13:26;;;;;;;1.10;0.30;;;;;;;9.80;98.54;96640.31;6242100;28;20324;-65
2022/11/04 11:16:39;;;;;;;0.90;0.40;;;;;;;9.85;99.01;96646.00;6238613;28;20313;-65
2022/11/04 11:20:13;;;;;;;0.57;0.40;;;;;;;9.84;98.66;96633.78;6228338;28;20328;-66
2022/11/04 11:23:37;;;;;;;0.40;0.40;;;;;;;9.78;98.16;96621.19;6245262;28;20829;-65
2022/11/04 11:26:55;;;;;;;1.10;0.50;;;;;;;9.84;98.37;96607.44;6249166;28;20318;-66
2022/11/04 11:29:57;;;;;;;0.60;0.60;;;;;;;9.95;98.00;96607.25;6246032;28;20597;-66
2022/11/04 11:33:18;;;;;;;0.47;0.40;;;;;;;9.97;97.59;96597.41;6240551;28;20319;-65
2022/11/04 11:36:27;;;;;;;0.47;0.43;;;;;;;9.97;97.71;96600.03;6243432;28;20614;-66
2022/11/04 11:39:32;;;;;;;0.53;0.47;;;;;;;9.99;97.73;96592.78;6243105;28;20237;-65
2022/11/04 11:42:40;;;;;;;0.57;0.50;;;;;;;9.94;97.16;96590.59;6235226;28;20578;-65
2022/11/04 11:45:48;;;;;;;0.37;0.30;;;;;;;9.86;96.61;96582.59;6243842;28;20625;-66
2022/11/04 11:48:53;;;;;;;0.43;0.43;;;;;;;9.91;96.68;96588.25;6248236;28;20302;-67
2022/11/04 11:52:15;;;;;;;0.47;0.40;;;;;;;9.95;96.99;96580.91;6244449;28;20282;-66
2022/11/04 11:55:33;;;;;;;0.80;0.60;;;;;;;9.97;97.57;96574.50;6240706;28;20227;-66
2022/11/04 11:58:48;;;;;;;0.40;0.40;;;;;;;10.01;97.29;96575.03;6220938;28;20333;-66
2022/11/04 12:02:19;;;;;;;1.40;0.40;;;;;;;9.96;97.07;96572.84;6231291;28;20241;-66
2022/11/04 12:05:31;;;;;;;2.00;0.43;;;;;;;10.00;97.16;96563.66;6247803;28;20232;-66
2022/11/04 12:09:19;;;;;;;0.40;0.40;;;;;;;10.09;97.84;96559.31;6238161;28;20256;-66
2022/11/04 12:12:53;;;;;;;0.30;0.30;;;;;;;10.15;97.80;96550.81;6244157;28;20240;-66
2022/11/04 12:16:08;;;;;;;0.40;0.40;;;;;;;10.18;97.63;96545.25;6238017;28;20578;-66
2022/11/04 12:19:39;;;;;;;0.30;0.30;;;;;;;10.24;97.40;96557.03;6239277;28;20295;-66
2022/11/04 12:22:50;;;;;;;1.53;0.30;;;;;;;10.25;97.27;96538.44;6211571;28;20225;-66
2022/11/04 12:26:11;;;;;;;1.60;0.30;;;;;;;10.28;97.16;96542.59;6241894;28;20770;-65
2022/11/04 12:29:36;;;;;;;0.47;0.40;;;;;;;10.21;97.30;96544.97;6242412;28;20698;-66
2022/11/04 12:32:51;;;;;;;0.40;0.30;;;;;;;10.16;97.64;96551.66;6240825;28;20239;-66
2022/11/04 12:36:08;;;;;;;1.10;0.40;;;;;;;10.11;97.51;96564.44;6240773;28;20381;-66
2022/11/04 12:39:19;;;;;;;0.40;0.33;;;;;;;10.06;98.04;96564.88;6233373;28;20292;-66
2022/11/04 12:42:38;;;;;;;0.40;0.40;;;;;;;9.99;98.13;96575.16;6243876;28;22991;-66
2022/11/04 12:46:22;;;;;;;0.30;0.30;;;;;;;9.91;98.26;96561.06;6234514;28;20309;-65
2022/11/04 12:49:30;;;;;;;1.17;0.30;;;;;;;9.83;98.61;96556.53;6244004;28;20578;-66
2022/11/04 12:52:47;;;;;;;0.40;0.30;;;;;;;9.83;98.06;96558.34;6245211;28;20309;-66
2022/11/04 12:56:10;;;;;;;0.30;0.30;;;;;;;9.79;98.61;96563.06;6234579;28;20709;-66
2022/11/04 12:59:33;;;;;;;0.30;0.30;;;;;;;9.75;98.32;96563.50;6232526;28;20244;-66
2022/11/04 13:02:49;;;;;;;0.30;0.30;;;;;;;9.70;98.92;96565.72;6248361;28;20229;-66
2022/11/04 13:06:00;;;;;;;0.77;0.23;;;;;;;9.60;98.61;96574.50;6243121;28;20293;-66
2022/11/04 13:09:12;;;;;;;0.97;0.30;;;;;;;9.53;98.51;96560.25;6247796;28;20226;-66
2022/11/04 13:12:25;;;;;;;0.30;0.30;;;;;;;9.47;97.75;96546.84;6223835;28;20213;-66
2022/11/04 13:15:31;;;;;;;0.40;0.40;;;;;;;9.46;97.99;96543.38;6242176;28;20704;-66
2022/11/04 13:18:36;;;;;;;0.30;0.30;;;;;;;9.45;98.45;96549.63;6249227;28;20225;-67
2022/11/04 13:21:38;;;;;;;0.50;0.37;;;;;;;9.42;98.51;96555.16;6226473;28;20609;-66
2022/11/04 13:25:16;;;;;;;0.20;0.17;;;;;;;9.41;98.85;96542.16;6245290;28;20237;-67
2022/11/04 13:28:21;;;;;;;0.30;0.30;;;;;;;9.39;98.49;96558.09;6183566;28;20246;-66
2022/11/04 13:31:38;;;;;;;0.30;0.30;;;;;;;9.31;98.87;96562.41;6231794;28;20709;-66
2022/11/04 13:35:14;;;;;;;0.40;0.40;;;;;;;9.25;98.47;96546.22;6245649;28;20438;-68
2022/11/04 13:38:23;;;;;;;0.50;0.40;;;;;;;9.16;98.39;96551.50;6247496;28;20242;-67
2022/11/04 13:41:59;;;;;;;0.30;0.30;;;;;;;9.06;98.29;96545.44;6245756;28;20233;-65
2022/11/04 13:45:10;;;;;;;0.43;0.40;;;;;;;9.05;97.76;96536.72;6254376;28;20307;-66
2022/11/04 13:48:15;;;;;;;0.40;0.40;;;;;;;8.98;98.58;96538.25;6241966;28;20605;-66
2022/11/04 13:51:18;;;;;;;0.40;0.40;;;;;;;8.98;98.46;96551.41;6216622;28;20243;-66
2022/11/04 13:54:30;;;;;;;0.40;0.33;;;;;;;8.96;98.51;96560.41;6247308;28;22448;-66
2022/11/04 13:57:52;;;;;;;0.30;0.30;;;;;;;8.93;97.97;96565.94;6243696;28;20317;-65
2022/11/04 14:01:16;;;;;;;0.37;0.30;;;;;;;8.83;98.65;96566.78;6240066;28;20718;-66
2022/11/04 14:04:29;;;;;;;0.30;0.30;;;;;;;8.72;97.75;96568.72;6247109;28;20604;-65
2022/11/04 14:08:02;;;;;;;0.27;0.27;;;;;;;8.68;97.68;96585.78;6252425;28;20239;-65
2022/11/04 14:11:09;;;;;;;0.50;0.30;;;;;;;8.64;97.86;96603.63;6253516;28;20575;-67
2022/11/04 14:14:18;;;;;;;0.30;0.30;;;;;;;8.65;97.66;96614.97;6217945;28;20239;-65
2022/11/04 14:17:32;;;;;;;0.20;0.20;;;;;;;8.51;97.39;96619.66;6248924;28;20232;-66
2022/11/04 14:20:35;;;;;;;0.20;0.20;;;;;;;8.39;97.01;96623.38;6242044;28;20593;-66
2022/11/04 14:23:41;;;;;;;0.40;0.40;;;;;;;8.36;97.47;96642.06;6248389;28;20322;-66
2022/11/04 14:26:45;;;;;;;0.30;0.30;;;;;;;8.27;98.30;96634.13;6233367;28;20266;-66
2022/11/04 14:29:50;;;;;;;0.63;0.20;;;;;;;8.07;97.21;96636.69;6232843;28;20236;-66
2022/11/04 14:32:57;;;;;;;0.57;0.30;;;;;;;8.05;97.05;96624.63;6226859;28;20316;-65
2022/11/04 14:36:18;;;;;;;0.50;0.40;;;;;;;7.95;96.74;96627.25;6242101;28;20231;-65
2022/11/04 14:39:23;;;;;;;1.30;0.20;;;;;;;7.83;96.60;96630.91;6247344;28;20235;-66
2022/11/04 14:42:48;;;;;;;1.00;0.20;;;;;;;7.63;94.44;96632.63;6221254;28;20667;-67
2022/11/04 14:45:54;;;;;;;0.10;0.10;;;;;;;7.58;94.44;96642.69;6226293;28;20243;-66
2022/11/04 14:49:00;;;;;;;0.10;0.10;;;;;;;7.59;94.37;96659.25;6228943;28;20223;-66
2022/11/04 14:52:03;;;;;;;0.43;0.30;;;;;;;7.57;94.97;96679.59;6244318;28;20234;-66
2022/11/04 14:55:16;;;;;;;0.10;0.10;;;;;;;7.53;95.16;96688.66;6241388;28;20256;-66
2022/11/04 14:58:25;;;;;;;0.73;0.20;;;;;;;7.52;95.46;96679.97;6225491;28;20251;-66
2022/11/04 15:01:30;;;;;;;0.10;0.10;;;;;;;7.48;95.13;96675.09;6229695;28;20348;-66
2022/11/04 15:04:36;;;;;;;0.10;0.10;;;;;;;7.41;95.51;96669.53;6240664;28;20234;-66
2022/11/04 15:07:39;;;;;;;0.20;0.17;;;;;;;7.38;96.47;96672.41;6242077;28;20380;-66